createdAt,value
2023-05-10T00:00:39.428Z,62.25
2023-05-10T00:06:05.989Z,62.11
2023-05-10T00:11:11.143Z,62.86
2023-05-10T00:16:14.319Z,64.16
2023-05-10T00:21:35.775Z,63.09
2023-05-10T00:27:05.957Z,64.01
2023-05-10T00:32:17.250Z,65.31
2023-05-10T00:37:24.636Z,63.98
2023-05-10T00:42:44.204Z,64.26
2023-05-10T00:47:56.238Z,64.00
2023-05-10T00:53:18.864Z,64.44
2023-05-10T00:58:29.449Z,65.82
2023-05-10T01:03:39.089Z,64.53
2023-05-10T01:08:47.164Z,64.98
2023-05-10T01:14:11.406Z,65.76
2023-05-10T01:19:35.872Z,66.71
2023-05-10T01:25:07.860Z,66.18
2023-05-10T01:30:43.886Z,67.36
2023-05-10T01:36:03.406Z,67.25
2023-05-10T01:41:48.835Z,67.47
2023-05-10T01:47:26.241Z,66.42
2023-05-10T01:52:53.587Z,66.33
2023-05-10T01:58:16.918Z,65.93
2023-05-10T02:04:00.235Z,67.00
2023-05-10T02:09:16.930Z,67.87
2023-05-10T02:14:55.187Z,67.50
2023-05-10T02:20:20.570Z,67.85
2023-05-10T02:25:48.581Z,67.40
2023-05-10T02:30:57.095Z,67.23
2023-05-10T02:36:05.118Z,67.59
2023-05-10T02:41:14.508Z,68.72
2023-05-10T02:46:25.014Z,67.58
2023-05-10T02:51:36.040Z,68.13
2023-05-10T02:56:50.338Z,68.12
2023-05-10T03:02:05.161Z,67.47
2023-05-10T03:07:10.700Z,67.53
2023-05-10T03:12:43.744Z,67.91
2023-05-10T03:18:15.393Z,68.26
2023-05-10T03:23:24.434Z,69.12
2023-05-10T03:28:51.740Z,68.22
2023-05-10T03:34:05.785Z,68.52
2023-05-10T03:39:20.423Z,68.52
2023-05-10T03:44:35.576Z,67.63
2023-05-10T03:49:40.275Z,67.24
2023-05-10T03:55:19.890Z,67.57
2023-05-10T04:00:58.518Z,67.64
2023-05-10T04:06:12.033Z,67.39
2023-05-10T04:11:17.290Z,67.51
2023-05-10T04:16:33.658Z,67.52
2023-05-10T04:21:41.348Z,67.46
2023-05-10T04:26:46.744Z,67.62
2023-05-10T04:31:56.376Z,67.43
2023-05-10T04:37:01.686Z,67.38
2023-05-10T04:42:06.807Z,67.44
2023-05-10T04:47:11.263Z,67.22
2023-05-10T04:52:20.939Z,67.09
2023-05-10T04:57:28.055Z,66.92
2023-05-10T05:02:43.926Z,66.80
2023-05-10T05:07:49.651Z,66.90
2023-05-10T05:12:57.319Z,66.19
2023-05-10T05:18:11.168Z,65.65
2023-05-10T05:23:21.696Z,65.15
2023-05-10T05:28:38.479Z,64.70
2023-05-10T05:33:41.039Z,64.13
2023-05-10T05:38:52.354Z,63.46
2023-05-10T05:43:54.689Z,62.90
2023-05-10T05:48:59.647Z,62.49
2023-05-10T05:54:05.302Z,61.32
2023-05-10T05:59:16.990Z,60.08
2023-05-10T06:04:31.046Z,59.27
2023-05-10T06:09:36.395Z,59.66
2023-05-10T06:14:38.692Z,59.63
2023-05-10T06:19:44.096Z,59.81
2023-05-10T06:24:49.565Z,60.29
2023-05-10T06:29:56.467Z,59.11
2023-05-10T06:35:23.325Z,57.99
2023-05-10T06:40:25.765Z,56.43
2023-05-10T06:45:35.881Z,56.41
2023-05-10T06:50:52.160Z,55.54
2023-05-10T06:55:54.302Z,55.27
2023-05-10T07:01:27.289Z,55.23
2023-05-10T07:06:33.840Z,54.10
2023-05-10T07:11:39.734Z,53.19
2023-05-10T07:16:45.716Z,51.20
2023-05-10T07:21:51.968Z,50.42
2023-05-10T07:26:54.478Z,50.26
2023-05-10T07:31:59.269Z,50.67
2023-05-10T07:37:02.389Z,49.92
2023-05-10T07:42:04.669Z,50.02
2023-05-10T07:47:09.516Z,49.34
2023-05-10T07:52:12.267Z,49.76
2023-05-10T07:57:16.385Z,49.04
2023-05-10T08:02:19.000Z,47.94
2023-05-10T08:07:29.957Z,47.68
2023-05-10T08:12:32.143Z,46.78
2023-05-10T08:17:40.567Z,47.74
2023-05-10T08:22:43.161Z,47.11
2023-05-10T08:27:45.314Z,47.56
2023-05-10T08:32:47.820Z,47.20
2023-05-10T08:37:52.803Z,45.78
2023-05-10T08:43:10.757Z,46.40
2023-05-10T08:48:13.027Z,46.24
2023-05-10T08:53:22.223Z,45.68
2023-05-10T08:58:24.459Z,45.14
2023-05-10T09:03:30.138Z,44.64
2023-05-10T09:08:32.488Z,44.16
2023-05-10T09:13:42.889Z,43.43
2023-05-10T09:18:45.538Z,43.29
2023-05-10T09:23:51.315Z,43.45
2023-05-10T09:29:04.562Z,42.92
2023-05-10T09:34:14.490Z,42.73
2023-05-10T09:39:39.337Z,41.65
2023-05-10T09:44:47.270Z,40.97
2023-05-10T09:50:03.930Z,39.49
2023-05-10T09:55:09.378Z,39.46
2023-05-10T10:00:24.380Z,39.56
2023-05-10T10:05:31.164Z,39.64
2023-05-10T10:10:37.965Z,40.13
2023-05-10T10:15:52.217Z,41.03
2023-05-10T10:21:01.519Z,40.99
2023-05-10T10:26:07.838Z,39.83
2023-05-10T10:31:45.655Z,39.10
2023-05-10T10:37:15.748Z,38.70
2023-05-10T10:43:17.970Z,38.79
2023-05-10T10:48:36.916Z,38.86
2023-05-10T10:53:59.987Z,39.09
2023-05-10T10:59:10.235Z,37.71
2023-05-10T11:04:47.410Z,37.50
2023-05-10T11:09:59.410Z,38.55
2023-05-10T11:15:16.185Z,37.99
2023-05-10T11:20:41.955Z,36.53
2023-05-10T11:25:46.137Z,36.10
2023-05-10T11:30:52.456Z,37.80
2023-05-10T11:35:59.858Z,37.83
2023-05-10T11:41:28.029Z,37.05
2023-05-10T11:46:41.475Z,37.26
2023-05-10T11:51:53.317Z,37.83
2023-05-10T11:57:06.264Z,36.91
2023-05-10T12:02:14.811Z,37.23
2023-05-10T12:07:23.064Z,36.34
2023-05-10T12:12:49.295Z,36.15
2023-05-10T12:18:02.378Z,36.40
2023-05-10T12:23:17.148Z,36.12
2023-05-10T12:28:32.103Z,35.98
2023-05-10T12:33:46.234Z,35.39
2023-05-10T12:39:03.670Z,35.32
2023-05-10T12:44:23.772Z,35.64
2023-05-10T12:49:31.208Z,35.23
2023-05-10T12:54:53.053Z,34.46
2023-05-10T12:59:58.572Z,34.25
2023-05-10T13:05:03.946Z,34.23
2023-05-10T13:10:27.641Z,33.96
2023-05-10T13:15:30.511Z,33.41
2023-05-10T13:20:33.029Z,33.66
2023-05-10T13:25:35.783Z,33.93
2023-05-10T13:30:38.071Z,34.43
2023-05-10T13:35:40.631Z,34.26
2023-05-10T13:40:42.897Z,34.86
2023-05-10T13:45:48.407Z,34.41
2023-05-10T13:50:53.362Z,34.48
2023-05-10T13:56:09.813Z,34.75
2023-05-10T14:01:17.424Z,35.66
2023-05-10T14:06:23.149Z,35.99
2023-05-10T14:11:25.404Z,36.22
2023-05-10T14:16:28.724Z,36.57
2023-05-10T14:21:31.962Z,36.49
2023-05-10T14:26:42.383Z,35.65
2023-05-10T14:31:44.991Z,35.97
2023-05-10T14:36:50.935Z,36.37
2023-05-10T14:41:54.314Z,36.66
2023-05-10T14:46:59.484Z,37.04
2023-05-10T14:52:01.778Z,37.41
2023-05-10T14:57:04.549Z,37.24
2023-05-10T15:02:12.691Z,37.05
2023-05-10T15:07:17.480Z,37.55
2023-05-10T15:12:20.222Z,38.31
2023-05-10T15:17:25.306Z,38.65
2023-05-10T15:22:29.356Z,38.60
2023-05-10T15:27:40.207Z,38.58
2023-05-10T15:32:52.740Z,38.24
2023-05-10T15:37:58.809Z,38.18
2023-05-10T15:43:01.552Z,38.21
2023-05-10T15:48:04.809Z,38.13
2023-05-10T15:53:12.026Z,37.75
2023-05-10T15:58:27.626Z,37.68
2023-05-10T16:03:31.053Z,37.84
2023-05-10T16:08:44.573Z,37.58
2023-05-10T16:13:47.281Z,37.31
2023-05-10T16:18:58.855Z,36.66
2023-05-10T16:24:01.540Z,37.50
2023-05-10T16:29:21.736Z,37.38
2023-05-10T16:34:25.402Z,37.45
2023-05-10T16:39:28.005Z,37.31
2023-05-10T16:44:30.732Z,37.72
2023-05-10T16:49:34.026Z,38.32
2023-05-10T16:54:38.701Z,38.55
2023-05-10T16:59:40.977Z,38.46
2023-05-10T17:04:43.560Z,38.78
2023-05-10T17:09:47.157Z,38.98
2023-05-10T17:14:49.600Z,39.36
2023-05-10T17:19:52.623Z,39.73
2023-05-10T17:24:57.172Z,40.02
2023-05-10T17:30:03.504Z,40.36
2023-05-10T17:35:06.885Z,40.74
2023-05-10T17:40:10.532Z,41.59
2023-05-10T17:45:12.552Z,42.14
2023-05-10T17:50:15.901Z,42.44
2023-05-10T17:55:18.511Z,42.70
2023-05-10T18:00:21.594Z,42.89
2023-05-10T18:05:23.939Z,43.24
2023-05-10T18:10:29.945Z,43.76
2023-05-10T18:15:33.454Z,44.11
2023-05-10T18:20:36.107Z,44.27
2023-05-10T18:25:38.354Z,44.64
2023-05-10T18:30:44.946Z,44.79
2023-05-10T18:35:47.428Z,45.23
2023-05-10T18:40:50.705Z,46.50
2023-05-10T18:45:53.258Z,46.85
2023-05-10T18:51:05.094Z,47.22
2023-05-10T18:56:07.994Z,47.74
2023-05-10T19:01:16.921Z,48.06
2023-05-10T19:06:19.027Z,48.76
2023-05-10T19:11:24.853Z,49.34
2023-05-10T19:16:29.070Z,50.00
2023-05-10T19:21:33.414Z,50.30
2023-05-10T19:26:38.695Z,50.42
2023-05-10T19:31:45.362Z,50.78
2023-05-10T19:36:50.757Z,51.06
2023-05-10T19:41:55.954Z,51.50
2023-05-10T19:46:59.005Z,51.88
2023-05-10T19:52:03.767Z,51.88
2023-05-10T19:57:17.896Z,52.15
2023-05-10T20:02:20.012Z,52.64
2023-05-10T20:07:22.412Z,52.79
2023-05-10T20:12:30.567Z,52.89
2023-05-10T20:17:38.396Z,52.92
2023-05-10T20:22:40.857Z,53.04
2023-05-10T20:27:46.108Z,53.35
2023-05-10T20:32:48.602Z,53.59
2023-05-10T20:37:50.494Z,53.78
2023-05-10T20:42:54.305Z,54.39
2023-05-10T20:47:56.387Z,54.88
2023-05-10T20:52:58.619Z,55.25
2023-05-10T21:03:03.515Z,55.39
2023-05-10T21:08:06.158Z,55.75
2023-05-10T21:13:13.520Z,56.20
2023-05-10T21:18:15.616Z,56.51
2023-05-10T21:23:17.893Z,56.47
2023-05-10T21:28:19.895Z,56.68
2023-05-10T21:33:24.951Z,56.77
2023-05-10T21:38:28.432Z,56.90
2023-05-10T21:43:31.702Z,56.91
2023-05-10T21:48:39.258Z,57.04
2023-05-10T21:53:44.805Z,57.24
2023-05-10T21:58:49.835Z,57.70
2023-05-10T22:03:52.500Z,57.82
2023-05-10T22:08:54.485Z,58.08
2023-05-10T22:13:59.880Z,58.27
2023-05-10T22:19:02.674Z,58.84
2023-05-10T22:24:05.400Z,58.94
2023-05-10T22:29:10.830Z,58.90
2023-05-10T22:34:15.893Z,58.98
2023-05-10T22:39:20.776Z,59.70
2023-05-10T22:44:24.100Z,60.10
2023-05-10T22:49:29.559Z,59.73
2023-05-10T22:54:36.276Z,59.44
2023-05-10T22:59:44.882Z,59.50
2023-05-10T23:04:47.618Z,59.70
2023-05-10T23:09:50.385Z,59.35
2023-05-10T23:14:56.527Z,59.47
2023-05-10T23:19:58.697Z,59.80
2023-05-10T23:25:08.991Z,60.44
2023-05-10T23:30:11.471Z,60.64
2023-05-10T23:35:16.836Z,60.13
2023-05-10T23:40:19.985Z,60.41
2023-05-10T23:45:23.557Z,60.56
2023-05-10T23:50:50.049Z,60.66
2023-05-10T23:55:52.620Z,60.98
